createdAt,value
2022-08-16T00:00:52.250Z,99685.22
2022-08-16T00:03:55.982Z,99682.78
2022-08-16T00:06:59.303Z,99693.75
2022-08-16T00:10:02.404Z,99684.97
2022-08-16T00:13:10.547Z,99676.00
2022-08-16T00:17:01.135Z,99670.53
2022-08-16T00:19:41.200Z,99660.78
2022-08-16T00:22:46.136Z,99658.31
2022-08-16T00:26:36.516Z,99666.66
2022-08-16T00:29:16.180Z,99679.88
2022-08-16T00:32:19.357Z,99681.47
2022-08-16T00:35:27.128Z,99674.94
2022-08-16T00:38:40.148Z,99679.06
2022-08-16T00:41:47.518Z,99679.22
2022-08-16T00:44:57.052Z,99692.59
2022-08-16T00:48:01.299Z,99690.31
2022-08-16T00:51:29.545Z,99681.78
2022-08-16T00:54:35.976Z,99677.50
2022-08-16T00:57:59.162Z,99672.00
2022-08-16T01:01:07.996Z,99673.19
2022-08-16T01:04:29.306Z,99677.69
2022-08-16T01:07:51.337Z,99693.31
2022-08-16T01:10:56.114Z,99676.03
2022-08-16T01:14:10.432Z,99682.94
2022-08-16T01:17:19.907Z,99690.88
2022-08-16T01:20:30.297Z,99694.69
2022-08-16T01:23:58.489Z,99692.91
2022-08-16T01:27:11.625Z,99709.75
2022-08-16T01:30:26.243Z,99709.34
2022-08-16T01:33:33.498Z,99704.84
2022-08-16T01:36:39.516Z,99710.72
2022-08-16T01:39:45.956Z,99716.59
2022-08-16T01:42:50.925Z,99720.56
2022-08-16T01:45:59.867Z,99718.53
2022-08-16T01:49:43.555Z,99715.25
2022-08-16T01:52:51.394Z,99712.03
2022-08-16T01:56:24.984Z,99706.25
2022-08-16T01:59:30.990Z,99696.31
2022-08-16T02:02:34.507Z,99699.75
2022-08-16T02:05:46.803Z,99683.72
2022-08-16T02:08:55.913Z,99694.22
2022-08-16T02:12:39.704Z,99696.06
2022-08-16T02:15:28.436Z,99690.72
2022-08-16T02:18:32.356Z,99702.50
2022-08-16T02:21:36.580Z,99709.19
2022-08-16T02:24:59.537Z,99704.00
2022-08-16T02:28:05.667Z,99694.09
2022-08-16T02:31:15.888Z,99715.56
2022-08-16T02:34:21.275Z,99701.75
2022-08-16T02:37:39.707Z,99690.94
2022-08-16T02:40:55.030Z,99695.81
2022-08-16T02:44:00.877Z,99694.38
2022-08-16T02:47:04.295Z,99691.53
2022-08-16T02:50:53.705Z,99690.28
2022-08-16T02:53:33.688Z,99699.56
2022-08-16T02:56:37.159Z,99688.41
2022-08-16T02:59:42.411Z,99692.84
2022-08-16T03:02:46.535Z,99692.84
2022-08-16T03:06:00.207Z,99698.28
2022-08-16T03:09:03.629Z,99703.56
2022-08-16T03:12:08.780Z,99701.50
2022-08-16T03:15:15.547Z,99705.31
2022-08-16T03:18:40.110Z,99707.16
2022-08-16T03:21:44.544Z,99700.22
2022-08-16T03:24:47.764Z,99711.44
2022-08-16T03:27:52.294Z,99713.03
2022-08-16T03:30:58.178Z,99716.84
2022-08-16T03:34:04.188Z,99714.41
2022-08-16T03:37:07.532Z,99694.13
2022-08-16T03:40:31.821Z,99691.69
2022-08-16T03:43:51.070Z,99688.41
2022-08-16T03:46:58.374Z,99701.63
2022-08-16T03:50:25.550Z,99703.63
2022-08-16T03:53:37.846Z,99706.69
2022-08-16T03:56:57.234Z,99713.94
2022-08-16T04:00:01.483Z,99711.69
2022-08-16T04:03:18.830Z,99710.69
2022-08-16T04:06:22.299Z,99714.34
2022-08-16T04:09:25.675Z,99713.19
2022-08-16T04:12:53.110Z,99722.53
2022-08-16T04:15:53.647Z,99725.03
2022-08-16T04:19:02.196Z,99721.00
2022-08-16T04:22:08.497Z,99734.81
2022-08-16T04:25:20.542Z,99744.25
2022-08-16T04:28:51.633Z,99734.56
2022-08-16T04:31:55.546Z,99739.22
2022-08-16T04:35:03.582Z,99735.59
2022-08-16T04:38:10.595Z,99736.44
2022-08-16T04:41:32.861Z,99747.84
2022-08-16T04:44:54.345Z,99743.03
2022-08-16T04:48:01.706Z,99739.19
2022-08-16T04:51:13.590Z,99738.63
2022-08-16T04:54:22.032Z,99734.91
2022-08-16T04:57:25.197Z,99735.84
2022-08-16T05:00:35.157Z,99745.25
2022-08-16T05:03:59.716Z,99741.88
2022-08-16T05:07:09.963Z,99748.16
2022-08-16T05:10:33.632Z,99752.28
2022-08-16T05:13:42.134Z,99751.31
2022-08-16T05:16:48.712Z,99751.00
2022-08-16T05:19:58.329Z,99746.59
2022-08-16T05:23:10.056Z,99742.72
2022-08-16T05:26:19.982Z,99753.50
2022-08-16T05:29:24.908Z,99749.22
2022-08-16T05:32:51.898Z,99757.00
2022-08-16T05:35:56.035Z,99754.56
2022-08-16T05:39:20.633Z,99754.22
2022-08-16T05:42:35.769Z,99748.06
2022-08-16T05:45:39.742Z,99756.44
2022-08-16T05:48:46.294Z,99750.25
2022-08-16T05:52:00.014Z,99749.47
2022-08-16T05:55:06.614Z,99763.31
2022-08-16T05:58:31.759Z,99769.84
2022-08-16T06:01:38.232Z,99775.72
2022-08-16T06:04:44.930Z,99771.50
2022-08-16T06:07:58.234Z,99763.00
2022-08-16T06:11:13.236Z,99787.47
2022-08-16T06:14:16.721Z,99789.72
2022-08-16T06:17:21.583Z,99791.19
2022-08-16T06:20:35.585Z,99808.34
2022-08-16T06:23:54.113Z,99810.78
2022-08-16T06:26:59.018Z,99816.94
2022-08-16T06:30:09.791Z,99822.69
2022-08-16T06:33:19.656Z,99838.63
2022-08-16T06:36:26.765Z,99854.72
2022-08-16T06:39:49.676Z,99863.09
2022-08-16T06:43:14.747Z,99861.13
2022-08-16T06:46:31.296Z,99884.81
2022-08-16T06:49:35.681Z,99904.78
2022-08-16T06:52:58.137Z,99919.88
2022-08-16T06:56:14.035Z,99932.53
2022-08-16T06:59:33.256Z,99948.03
2022-08-16T07:02:58.535Z,99944.41
2022-08-16T07:06:07.535Z,99949.50
2022-08-16T07:09:18.815Z,99942.81
2022-08-16T07:12:23.644Z,99918.69
2022-08-16T07:15:49.981Z,99943.47
2022-08-16T07:18:59.006Z,99978.38
2022-08-16T07:22:05.118Z,100008.19
2022-08-16T07:25:14.636Z,100019.03
2022-08-16T07:28:24.267Z,100018.00
2022-08-16T07:31:37.534Z,100029.28
2022-08-16T07:34:48.163Z,100052.13
2022-08-16T07:37:53.331Z,100095.28
2022-08-16T07:41:10.177Z,100053.75
2022-08-16T07:44:17.338Z,100083.38
2022-08-16T07:47:31.912Z,100118.13
2022-08-16T07:50:57.220Z,100095.94
2022-08-16T07:54:02.184Z,100157.16
2022-08-16T07:57:12.266Z,100133.56
2022-08-16T08:00:18.745Z,100167.97
2022-08-16T08:03:36.133Z,100184.13
2022-08-16T08:06:45.090Z,100199.63
2022-08-16T08:09:53.339Z,100173.56
2022-08-16T08:12:58.504Z,100172.28
2022-08-16T08:16:02.711Z,100193.91
2022-08-16T08:19:12.350Z,100225.69
2022-08-16T08:22:18.919Z,100242.47
2022-08-16T08:25:24.903Z,100242.25
2022-08-16T08:28:30.809Z,100254.13
2022-08-16T08:31:42.239Z,100259.00
2022-08-16T08:34:47.918Z,100246.16
2022-08-16T08:37:55.346Z,100263.53
2022-08-16T08:41:02.447Z,100282.16
2022-08-16T08:44:28.442Z,100287.44
2022-08-16T08:47:28.848Z,100253.22
2022-08-16T08:50:35.316Z,100282.81
2022-08-16T08:53:43.193Z,100293.75
2022-08-16T08:56:46.749Z,100311.06
2022-08-16T09:00:14.168Z,100311.72
2022-08-16T09:03:18.486Z,100326.84
2022-08-16T09:06:24.052Z,100314.97
2022-08-16T09:09:33.222Z,100334.25
2022-08-16T09:12:38.320Z,100338.84
2022-08-16T09:15:45.772Z,100360.72
2022-08-16T09:18:56.862Z,100327.66
2022-08-16T09:22:04.518Z,100342.72
2022-08-16T09:25:11.382Z,100354.59
2022-08-16T09:29:13.322Z,100379.72
2022-08-16T09:31:47.560Z,100370.50
2022-08-16T09:34:58.420Z,100371.16
2022-08-16T09:38:03.042Z,100384.81
2022-08-16T09:41:14.792Z,100379.81
2022-08-16T09:44:20.747Z,100370.13
2022-08-16T09:47:56.284Z,100386.84
2022-08-16T09:51:00.900Z,100391.38
2022-08-16T09:54:09.488Z,100384.66
2022-08-16T09:57:13.138Z,100388.50
2022-08-16T10:00:42.605Z,100385.00
2022-08-16T10:04:02.047Z,100395.75
2022-08-16T10:07:15.655Z,100398.88
2022-08-16T10:10:30.724Z,100400.75
2022-08-16T10:13:34.355Z,100395.00
2022-08-16T10:16:38.944Z,100394.16
2022-08-16T10:19:43.290Z,100399.03
2022-08-16T10:22:46.471Z,100396.84
2022-08-16T10:27:17.438Z,100397.56
2022-08-16T10:29:20.184Z,100398.88
2022-08-16T10:32:24.114Z,100400.81
2022-08-16T10:35:33.744Z,100400.94
2022-08-16T10:38:40.389Z,100398.34
2022-08-16T10:41:46.816Z,100400.53
2022-08-16T10:44:54.583Z,100400.53
2022-08-16T10:48:03.421Z,100401.47
2022-08-16T10:51:07.428Z,100399.50
2022-08-16T10:54:21.188Z,100389.94
2022-08-16T10:57:34.986Z,100402.00
2022-08-16T11:00:41.980Z,100393.94
2022-08-16T11:03:45.991Z,100392.94
2022-08-16T11:07:06.706Z,100391.97
2022-08-16T11:10:59.127Z,100396.16
2022-08-16T11:17:10.420Z,100397.09
2022-08-16T11:23:40.818Z,100397.63
2022-08-16T11:30:38.669Z,100403.84
2022-08-16T11:33:58.113Z,100400.88
2022-08-16T11:37:02.183Z,100403.19
2022-08-16T11:40:09.396Z,100394.63
2022-08-16T11:43:16.873Z,100395.59
2022-08-16T11:46:45.209Z,100397.06
2022-08-16T11:49:45.402Z,100404.19
2022-08-16T11:52:48.429Z,100405.66
2022-08-16T11:55:54.910Z,100397.75
2022-08-16T11:58:58.112Z,100392.94
2022-08-16T12:02:04.127Z,100397.94
2022-08-16T12:05:27.591Z,100398.19
2022-08-16T12:08:33.347Z,100389.50
2022-08-16T12:11:36.569Z,100393.88
2022-08-16T12:14:40.974Z,100390.16
2022-08-16T12:17:45.340Z,100397.53
2022-08-16T12:20:48.954Z,100398.31
2022-08-16T12:23:51.941Z,100404.59
2022-08-16T12:26:56.603Z,100394.22
2022-08-16T12:29:59.660Z,100398.25
2022-08-16T12:33:07.863Z,100399.88
2022-08-16T12:36:13.023Z,100396.56
2022-08-16T12:39:17.600Z,100391.44
2022-08-16T12:42:24.515Z,100390.88
2022-08-16T12:45:45.915Z,100390.41
2022-08-16T12:49:00.174Z,100390.03
2022-08-16T12:52:03.561Z,100391.38
2022-08-16T12:55:08.614Z,100386.81
2022-08-16T12:58:14.091Z,100382.72
2022-08-16T13:01:36.712Z,100383.88
2022-08-16T13:04:41.105Z,100388.38
2022-08-16T13:07:51.901Z,100394.88
2022-08-16T13:10:56.398Z,100389.31
2022-08-16T13:13:59.449Z,100381.09
2022-08-16T13:17:06.817Z,100383.19
2022-08-16T13:20:17.341Z,100382.78
2022-08-16T13:23:21.278Z,100373.72
2022-08-16T13:26:26.593Z,100388.28
2022-08-16T13:29:43.631Z,100381.44
2022-08-16T13:32:47.553Z,100385.53
2022-08-16T13:35:58.323Z,100384.88
2022-08-16T13:39:06.240Z,100385.09
2022-08-16T13:42:12.015Z,100383.28
2022-08-16T13:45:17.531Z,100379.03
2022-08-16T13:48:25.252Z,100381.38
2022-08-16T13:51:30.945Z,100382.72
2022-08-16T13:54:34.107Z,100378.34
2022-08-16T13:58:35.613Z,100377.66
2022-08-16T14:01:01.717Z,100373.50
2022-08-16T14:04:05.374Z,100380.06
2022-08-16T14:07:13.181Z,100376.47
2022-08-16T14:10:23.287Z,100376.28
2022-08-16T14:13:26.319Z,100377.81
2022-08-16T14:16:33.567Z,100379.06
2022-08-16T14:19:37.164Z,100378.72
2022-08-16T14:22:52.196Z,100378.09
2022-08-16T14:25:57.137Z,100376.69
2022-08-16T14:29:03.639Z,100377.63
2022-08-16T14:32:08.405Z,100378.56
2022-08-16T14:35:16.895Z,100374.00
2022-08-16T14:38:24.077Z,100378.53
2022-08-16T14:41:28.087Z,100373.22
2022-08-16T14:44:31.160Z,100378.25
2022-08-16T14:47:37.033Z,100377.63
2022-08-16T14:50:40.056Z,100379.97
2022-08-16T14:53:49.825Z,100376.53
2022-08-16T14:56:56.093Z,100356.34
2022-08-16T15:00:05.630Z,100377.00
2022-08-16T15:03:10.848Z,100381.22
2022-08-16T15:06:14.593Z,100369.50
2022-08-16T15:09:20.650Z,100373.69
2022-08-16T15:12:31.160Z,100370.94
2022-08-16T15:15:38.706Z,100376.03
2022-08-16T15:18:42.528Z,100373.97
2022-08-16T15:21:53.774Z,100368.22
2022-08-16T15:24:59.714Z,100367.56
2022-08-16T15:28:07.308Z,100372.22
2022-08-16T15:31:28.147Z,100363.72
2022-08-16T15:34:31.423Z,100369.72
2022-08-16T15:37:42.833Z,100370.75
2022-08-16T15:40:57.504Z,100371.84
2022-08-16T15:44:05.509Z,100368.53
2022-08-16T15:47:16.382Z,100370.09
2022-08-16T15:50:21.444Z,100376.66
2022-08-16T15:53:27.235Z,100371.50
2022-08-16T15:56:32.204Z,100375.06
2022-08-16T15:59:49.092Z,100364.16
2022-08-16T16:03:03.148Z,100367.66
2022-08-16T16:06:06.778Z,100363.81
2022-08-16T16:09:10.620Z,100376.59
2022-08-16T16:12:41.977Z,100376.69
2022-08-16T16:15:43.447Z,100381.72
2022-08-16T16:18:49.045Z,100369.25
2022-08-16T16:21:53.932Z,100376.59
2022-08-16T16:24:57.583Z,100379.75
2022-08-16T16:28:02.306Z,100372.66
2022-08-16T16:31:08.704Z,100371.69
2022-08-16T16:34:12.260Z,100385.34
2022-08-16T16:37:15.810Z,100377.25
2022-08-16T16:40:23.976Z,100381.03
2022-08-16T16:43:40.761Z,100381.50
2022-08-16T16:46:44.686Z,100385.75
2022-08-16T16:50:00.449Z,100390.47
2022-08-16T16:53:04.443Z,100391.97
2022-08-16T16:56:30.009Z,100397.28
2022-08-16T16:59:36.774Z,100395.72
2022-08-16T17:02:49.307Z,100400.16
2022-08-16T17:06:00.172Z,100393.56
2022-08-16T17:09:15.388Z,100410.06
2022-08-16T17:12:24.909Z,100405.00
2022-08-16T17:15:36.291Z,100414.03
2022-08-16T17:19:14.678Z,100411.00
2022-08-16T17:22:03.008Z,100408.78
2022-08-16T17:25:10.716Z,100412.06
2022-08-16T17:28:57.753Z,100406.72
2022-08-16T17:31:40.974Z,100408.16
2022-08-16T17:34:50.789Z,100414.31
2022-08-16T17:37:54.844Z,100419.84
2022-08-16T17:40:59.712Z,100417.34
2022-08-16T17:44:03.777Z,100422.91
2022-08-16T17:47:08.186Z,100416.19
2022-08-16T17:50:12.339Z,100428.53
2022-08-16T17:53:16.018Z,100418.84
2022-08-16T17:56:20.577Z,100420.97
2022-08-16T17:59:24.270Z,100419.34
2022-08-16T18:03:08.309Z,100428.09
2022-08-16T18:06:48.048Z,100426.56
2022-08-16T18:10:33.366Z,100423.94
2022-08-16T18:18:19.677Z,100430.13
2022-08-16T18:21:57.092Z,100430.81
2022-08-16T18:25:03.152Z,100432.66
2022-08-16T18:28:06.451Z,100429.13
2022-08-16T18:31:10.404Z,100441.56
2022-08-16T18:34:14.699Z,100448.22
2022-08-16T18:37:17.667Z,100435.50
2022-08-16T18:40:21.107Z,100433.28
2022-08-16T18:44:00.978Z,100437.69
2022-08-16T18:46:50.857Z,100433.16
2022-08-16T18:49:55.502Z,100436.97
2022-08-16T18:53:02.656Z,100433.28
2022-08-16T18:56:05.888Z,100429.22
2022-08-16T18:59:09.145Z,100435.38
2022-08-16T19:02:56.217Z,100444.19
2022-08-16T19:05:41.443Z,100435.59
2022-08-16T19:08:45.809Z,100438.88
2022-08-16T19:11:48.837Z,100440.13
2022-08-16T19:14:52.095Z,100432.78
2022-08-16T19:17:55.471Z,100431.75
2022-08-16T19:21:00.113Z,100433.16
2022-08-16T19:24:03.434Z,100422.31
2022-08-16T19:27:10.037Z,100415.56
2022-08-16T19:30:14.189Z,100410.03
2022-08-16T19:33:17.160Z,100415.94
2022-08-16T19:36:31.914Z,100409.19
2022-08-16T19:39:38.839Z,100404.25
2022-08-16T19:42:48.168Z,100405.50
2022-08-16T19:45:53.551Z,100407.97
2022-08-16T19:48:56.529Z,100414.47
2022-08-16T19:52:12.211Z,100406.28
2022-08-16T19:55:20.635Z,100396.47
2022-08-16T19:58:25.485Z,100387.41
2022-08-16T20:01:28.427Z,100392.91
2022-08-16T20:04:31.706Z,100400.44
2022-08-16T20:07:35.988Z,100396.34
2022-08-16T20:10:41.322Z,100406.16
2022-08-16T20:13:44.281Z,100396.34
2022-08-16T20:16:47.655Z,100386.69
2022-08-16T20:19:50.623Z,100374.84
2022-08-16T20:22:55.018Z,100365.22
2022-08-16T20:25:57.987Z,100367.88
2022-08-16T20:29:01.267Z,100360.72
2022-08-16T20:32:06.312Z,100365.41
2022-08-16T20:35:11.965Z,100358.00
2022-08-16T20:38:16.333Z,100365.34
2022-08-16T20:41:20.098Z,100347.56
2022-08-16T20:44:25.039Z,100329.94
2022-08-16T20:47:28.455Z,100324.59
2022-08-16T20:50:31.568Z,100313.16
2022-08-16T20:53:36.465Z,100317.66
2022-08-16T20:56:39.412Z,100306.59
2022-08-16T20:59:46.772Z,100303.31
2022-08-16T21:02:52.454Z,100305.16
2022-08-16T21:05:58.643Z,100291.00
2022-08-16T21:09:04.626Z,100289.75
2022-08-16T21:12:12.982Z,100280.75
2022-08-16T21:15:21.332Z,100286.22
2022-08-16T21:18:24.779Z,100286.81
2022-08-16T21:21:33.427Z,100278.44
2022-08-16T21:24:38.992Z,100280.66
2022-08-16T21:28:39.480Z,100281.44
2022-08-16T21:31:05.032Z,100277.38
2022-08-16T21:34:08.440Z,100285.72
2022-08-16T21:37:12.214Z,100279.34
2022-08-16T21:40:20.242Z,100275.25
2022-08-16T21:43:24.213Z,100268.69
2022-08-16T21:46:27.186Z,100276.03
2022-08-16T21:49:30.158Z,100279.66
2022-08-16T21:52:33.120Z,100283.72
2022-08-16T21:55:43.671Z,100284.09
2022-08-16T21:58:52.777Z,100277.09
2022-08-16T22:01:56.392Z,100292.16
2022-08-16T22:05:01.105Z,100294.16
2022-08-16T22:08:05.453Z,100305.44
2022-08-16T22:11:09.871Z,100307.81
2022-08-16T22:14:13.494Z,100303.72
2022-08-16T22:17:17.281Z,100314.06
2022-08-16T22:20:21.983Z,100320.19
2022-08-16T22:23:27.476Z,100325.25
2022-08-16T22:26:38.574Z,100327.44
2022-08-16T22:29:45.819Z,100329.44
2022-08-16T22:32:50.310Z,100326.94
2022-08-16T22:35:56.336Z,100327.53
2022-08-16T22:39:02.988Z,100328.94
2022-08-16T22:42:09.090Z,100327.66
2022-08-16T22:45:13.431Z,100325.41
2022-08-16T22:48:17.561Z,100333.34
2022-08-16T22:51:24.035Z,100332.06
2022-08-16T22:54:44.319Z,100329.44
2022-08-16T22:57:51.435Z,100330.81
2022-08-16T23:00:54.396Z,100335.66
2022-08-16T23:03:57.496Z,100339.72
2022-08-16T23:07:01.239Z,100319.06
2022-08-16T23:10:06.825Z,100315.13
2022-08-16T23:13:12.706Z,100313.88
2022-08-16T23:16:15.948Z,100304.28
2022-08-16T23:19:18.987Z,100309.13
2022-08-16T23:22:24.698Z,100310.94
2022-08-16T23:25:31.656Z,100308.66
2022-08-16T23:28:35.942Z,100300.91
2022-08-16T23:31:39.430Z,100301.06
2022-08-16T23:34:45.023Z,100300.19
2022-08-16T23:37:47.996Z,100295.25
2022-08-16T23:40:51.219Z,100286.88
2022-08-16T23:43:55.491Z,100283.75
2022-08-16T23:46:58.860Z,100285.41
2022-08-16T23:50:03.815Z,100281.31
2022-08-16T23:53:11.328Z,100274.75
2022-08-16T23:56:17.677Z,100275.94
2022-08-16T23:59:22.208Z,100279.56
